Time;durP1;ratioP1;P1;durP2;ratioP2;P2;SDS_P1;SDS_P2;PMS_P1;PMS_P2;Temp;Humidity;BMP_temperature;BMP_pressure;BME280_temperature;BME280_humidity;BME280_pressure;Samples;Min_cycle;Max_cycle;Signal;HPM_P1;HPM_P2
2022/02/06 00:04:49;;;;;;;17.02;8.38;;;;;;;;;;10488409;28;20396;-77
2022/02/06 00:09:50;;;;;;;19.10;9.48;;;;;;;;;;10489233;28;20021;-75
2022/02/06 00:14:50;;;;;;;26.73;10.25;;;;;;;;;;10487370;28;20031;-77
2022/02/06 00:19:50;;;;;;;18.07;10.57;;;;;;;;;;10487782;28;20560;-78
2022/02/06 00:25:11;;;;;;;21.45;10.73;;;;;;;;;;10487610;28;20108;-75
2022/02/06 00:35:48;;;;;;;25.23;11.52;;;;;;;;;;10491184;28;20024;-80
2022/02/06 00:45:55;;;;;;;30.73;12.63;;;;;;;;;;10488621;28;20291;-77
2022/02/06 00:51:22;;;;;;;25.42;11.63;;;;;;;;;;10488775;28;20102;-79
2022/02/06 00:56:20;;;;;;;22.10;12.63;;;;;;;;;;10487587;28;20502;-76
2022/02/06 01:01:20;;;;;;;27.02;11.75;;;;;;;;;;10487335;28;20025;-76
2022/02/06 01:06:21;;;;;;;23.50;12.43;;;;;;;;;;10488178;28;20017;-79
2022/02/06 01:11:21;;;;;;;24.35;11.52;;;;;;;;;;10486828;28;20459;-77
2022/02/06 01:16:30;;;;;;;22.80;11.38;;;;;;;;;;10487318;28;20028;-77
2022/02/06 01:26:40;;;;;;;29.93;13.67;;;;;;;;;;10493854;28;20043;-77
2022/02/06 01:32:04;;;;;;;26.40;12.10;;;;;;;;;;10494792;28;20086;-76
2022/02/06 01:37:22;;;;;;;29.85;13.07;;;;;;;;;;10495683;28;20032;-77
2022/02/06 02:49:54;;;;;;;21.10;10.68;;;;;;;;;;10537340;28;20034;-81
2022/02/06 02:55:12;;;;;;;16.67;9.20;;;;;;;;;;10533259;28;20026;-76
2022/02/06 03:00:25;;;;;;;18.02;9.90;;;;;;;;;;10532817;28;20055;-78
2022/02/06 03:05:26;;;;;;;20.45;9.93;;;;;;;;;;10533260;28;20035;-76
2022/02/06 03:10:27;;;;;;;20.10;9.48;;;;;;;;;;10532552;28;20020;-81
2022/02/06 03:20:47;;;;;;;22.02;10.85;;;;;;;;;;10533808;28;20020;-78
2022/02/06 03:25:53;;;;;;;22.27;11.55;;;;;;;;;;10532740;28;20024;-77
2022/02/06 03:30:53;;;;;;;22.67;10.88;;;;;;;;;;10531694;28;20020;-79
2022/02/06 03:35:53;;;;;;;21.70;10.57;;;;;;;;;;10531415;28;20058;-81
2022/02/06 03:41:00;;;;;;;18.23;9.27;;;;;;;;;;10531062;28;20044;-80
2022/02/06 03:46:09;;;;;;;19.88;10.85;;;;;;;;;;10532407;28;20027;-80
2022/02/06 03:51:17;;;;;;;19.85;10.70;;;;;;;;;;10530564;28;20030;-79
2022/02/06 03:56:19;;;;;;;21.70;10.02;;;;;;;;;;10531355;28;20462;-78
2022/02/06 04:01:20;;;;;;;23.00;10.63;;;;;;;;;;10530329;28;20024;-77
2022/02/06 04:06:21;;;;;;;19.75;10.13;;;;;;;;;;10530774;28;20028;-78
2022/02/06 04:11:32;;;;;;;20.40;10.38;;;;;;;;;;10530758;28;20513;-78
2022/02/06 04:16:49;;;;;;;18.45;9.20;;;;;;;;;;10545376;28;20490;-77
2022/02/06 04:21:50;;;;;;;18.30;9.90;;;;;;;;;;10530196;28;20403;-78
2022/02/06 04:26:52;;;;;;;16.92;8.23;;;;;;;;;;10530107;28;20017;-80
2022/02/06 04:31:52;;;;;;;14.48;7.53;;;;;;;;;;10529478;28;20054;-80
2022/02/06 04:47:55;;;;;;;13.95;5.63;;;;;;;;;;10530765;28;20463;-76
2022/02/06 05:14:11;;;;;;;20.00;9.05;;;;;;;;;;10539096;28;20288;-78
2022/02/06 05:34:24;;;;;;;17.02;8.75;;;;;;;;;;10502802;28;20027;-77
2022/02/06 05:39:24;;;;;;;26.47;9.50;;;;;;;;;;10494009;28;20059;-77
2022/02/06 05:44:24;;;;;;;20.60;8.82;;;;;;;;;;10525242;28;20012;-76
2022/02/06 05:49:24;;;;;;;14.70;8.38;;;;;;;;;;10504684;28;20035;-77
2022/02/06 05:54:25;;;;;;;20.20;9.73;;;;;;;;;;10521560;28;20047;-76
2022/02/06 05:59:25;;;;;;;15.13;7.53;;;;;;;;;;10534956;28;20032;-75
2022/02/06 06:04:25;;;;;;;15.15;8.70;;;;;;;;;;10535137;28;20459;-78
2022/02/06 06:09:26;;;;;;;17.52;7.88;;;;;;;;;;10534838;28;20491;-79
2022/02/06 06:14:29;;;;;;;14.30;7.28;;;;;;;;;;10532371;28;20589;-76
2022/02/06 06:19:29;;;;;;;13.05;7.57;;;;;;;;;;10534096;28;20036;-76
2022/02/06 06:24:30;;;;;;;17.87;9.30;;;;;;;;;;10534041;28;20028;-75
2022/02/06 06:29:30;;;;;;;19.25;8.70;;;;;;;;;;10534061;28;20020;-75
2022/02/06 06:34:31;;;;;;;14.00;7.53;;;;;;;;;;10535326;28;20078;-78
2022/02/06 06:39:44;;;;;;;13.15;6.35;;;;;;;;;;10535401;28;20066;-77
2022/02/06 06:44:44;;;;;;;19.58;8.57;;;;;;;;;;10533432;28;20392;-78
2022/02/06 06:49:45;;;;;;;19.95;8.35;;;;;;;;;;10531650;28;20028;-74
2022/02/06 06:54:49;;;;;;;21.52;8.40;;;;;;;;;;10532243;28;20102;-72
2022/02/06 07:04:52;;;;;;;20.75;10.40;;;;;;;;;;10533719;28;20089;-74
2022/02/06 07:09:53;;;;;;;20.40;10.23;;;;;;;;;;10531859;28;20100;-77
2022/02/06 07:14:53;;;;;;;24.67;12.43;;;;;;;;;;10532127;28;20540;-73
2022/02/06 07:19:53;;;;;;;28.63;13.17;;;;;;;;;;10504883;28;20491;-72
2022/02/06 07:24:54;;;;;;;21.15;11.88;;;;;;;;;;10489122;28;20035;-75
2022/02/06 07:29:56;;;;;;;24.58;12.02;;;;;;;;;;10493656;28;20020;-77
2022/02/06 07:34:57;;;;;;;26.35;13.90;;;;;;;;;;10531410;28;20034;-78
2022/02/06 07:39:57;;;;;;;27.63;13.40;;;;;;;;;;10530009;28;20087;-78
2022/02/06 07:44:57;;;;;;;32.75;13.00;;;;;;;;;;10531070;28;20262;-78
2022/02/06 07:50:02;;;;;;;27.53;12.23;;;;;;;;;;10505331;28;20484;-77
2022/02/06 07:55:04;;;;;;;24.35;12.25;;;;;;;;;;10472619;28;20259;-75
2022/02/06 08:00:05;;;;;;;30.38;12.60;;;;;;;;;;10489814;28;20074;-74
2022/02/06 08:05:05;;;;;;;28.65;13.63;;;;;;;;;;10501853;28;20026;-76
2022/02/06 08:10:06;;;;;;;30.02;15.25;;;;;;;;;;10524258;28;20020;-78
2022/02/06 08:15:07;;;;;;;26.38;14.00;;;;;;;;;;10526024;28;20016;-74
2022/02/06 08:20:12;;;;;;;27.25;11.73;;;;;;;;;;10526181;28;20020;-75
2022/02/06 08:25:13;;;;;;;19.52;11.07;;;;;;;;;;10493481;28;20028;-76
2022/02/06 08:30:14;;;;;;;24.70;11.35;;;;;;;;;;10526919;28;20016;-75
2022/02/06 08:35:15;;;;;;;23.30;11.38;;;;;;;;;;10525613;28;20024;-77
2022/02/06 08:40:16;;;;;;;18.88;10.13;;;;;;;;;;10527762;28;20044;-74
2022/02/06 08:45:17;;;;;;;26.17;11.88;;;;;;;;;;10521293;28;20111;-74
2022/02/06 08:50:18;;;;;;;21.27;10.90;;;;;;;;;;10523692;28;20012;-75
2022/02/06 08:55:19;;;;;;;24.70;10.57;;;;;;;;;;10528656;28;20027;-81
2022/02/06 09:00:21;;;;;;;18.92;10.68;;;;;;;;;;10529073;28;20032;-76
2022/02/06 09:05:23;;;;;;;29.17;12.25;;;;;;;;;;10527733;28;20471;-80
2022/02/06 09:10:24;;;;;;;19.63;10.98;;;;;;;;;;10527975;28;20051;-75
2022/02/06 09:15:24;;;;;;;29.67;12.10;;;;;;;;;;10530743;28;20063;-80
2022/02/06 09:20:24;;;;;;;26.40;12.52;;;;;;;;;;10526100;28;20073;-77
2022/02/06 09:25:25;;;;;;;23.02;10.95;;;;;;;;;;10527377;28;20495;-77
2022/02/06 09:30:27;;;;;;;22.40;11.55;;;;;;;;;;10526231;28;20020;-76
2022/02/06 09:35:28;;;;;;;27.15;11.55;;;;;;;;;;10500440;28;20017;-75
2022/02/06 09:40:32;;;;;;;19.97;10.13;;;;;;;;;;10500094;28;20045;-76
2022/02/06 09:45:37;;;;;;;23.83;11.38;;;;;;;;;;10503161;28;20115;-78
2022/02/06 09:50:38;;;;;;;19.20;10.82;;;;;;;;;;10492229;28;20028;-76
2022/02/06 09:55:39;;;;;;;20.40;9.75;;;;;;;;;;10520213;28;20417;-76
2022/02/06 10:00:41;;;;;;;18.15;9.32;;;;;;;;;;10533420;28;20032;-75
2022/02/06 10:05:43;;;;;;;21.00;9.10;;;;;;;;;;10533760;28;20122;-74
2022/02/06 10:11:02;;;;;;;16.00;8.77;;;;;;;;;;10533321;28;20032;-75
2022/02/06 10:16:03;;;;;;;16.13;9.05;;;;;;;;;;10507486;28;20048;-78
2022/02/06 10:21:05;;;;;;;17.85;9.10;;;;;;;;;;10492026;28;20230;-74
2022/02/06 10:26:19;;;;;;;21.98;8.70;;;;;;;;;;10490681;28;20033;-80
2022/02/06 10:31:23;;;;;;;17.83;8.23;;;;;;;;;;10490493;28;20033;-76
2022/02/06 10:36:27;;;;;;;15.38;7.30;;;;;;;;;;10509670;28;20024;-76
2022/02/06 10:41:27;;;;;;;13.35;7.05;;;;;;;;;;10531829;28;20056;-76
2022/02/06 10:46:29;;;;;;;12.60;6.70;;;;;;;;;;10532131;28;20399;-80
2022/02/06 10:51:36;;;;;;;14.20;7.80;;;;;;;;;;10507564;28;20032;-75
2022/02/06 10:56:40;;;;;;;18.35;7.13;;;;;;;;;;10524317;28;20081;-74
2022/02/06 11:01:41;;;;;;;12.25;6.55;;;;;;;;;;10490207;28;20055;-75
2022/02/06 11:06:47;;;;;;;11.55;6.75;;;;;;;;;;10533390;28;20042;-76
2022/02/06 11:11:48;;;;;;;12.37;7.37;;;;;;;;;;10530719;28;20517;-83
2022/02/06 11:16:50;;;;;;;15.85;6.82;;;;;;;;;;10531870;28;20047;-82
2022/02/06 11:22:06;;;;;;;12.80;7.03;;;;;;;;;;10531189;28;20118;-80
2022/02/06 11:27:07;;;;;;;14.25;7.07;;;;;;;;;;10531137;28;20479;-75
2022/02/06 11:32:08;;;;;;;12.68;7.38;;;;;;;;;;10529683;28;20020;-81
2022/02/06 11:48:20;;;;;;;12.70;6.35;;;;;;;;;;10408443;28;20089;-78
2022/02/06 11:53:28;;;;;;;15.95;7.40;;;;;;;;;;10469931;28;20453;-76
2022/02/06 11:58:31;;;;;;;13.82;6.28;;;;;;;;;;10512338;28;20535;-80
2022/02/06 12:03:50;;;;;;;12.38;6.72;;;;;;;;;;10530100;28;20036;-76
2022/02/06 12:09:00;;;;;;;14.10;7.88;;;;;;;;;;10487789;28;20036;-75
2022/02/06 12:14:06;;;;;;;13.93;8.18;;;;;;;;;;10487867;28;20048;-79
2022/02/06 12:19:25;;;;;;;22.40;7.97;;;;;;;;;;10491645;28;20032;-79
2022/02/06 12:24:36;;;;;;;18.38;8.68;;;;;;;;;;10530751;28;20020;-80
2022/02/06 12:29:43;;;;;;;18.08;8.32;;;;;;;;;;10528928;28;20047;-79
2022/02/06 12:40:13;;;;;;;16.70;7.22;;;;;;;;;;10521387;28;20064;-79
2022/02/06 12:45:17;;;;;;;17.35;7.45;;;;;;;;;;10528639;28;20032;-81
2022/02/06 12:50:19;;;;;;;17.40;8.15;;;;;;;;;;10531758;28;20062;-80
2022/02/06 12:55:20;;;;;;;13.18;7.47;;;;;;;;;;10536597;28;20480;-78
2022/02/06 13:00:44;;;;;;;18.40;7.68;;;;;;;;;;10533185;28;20054;-81
2022/02/06 13:05:50;;;;;;;10.73;6.15;;;;;;;;;;10527629;28;20020;-75
2022/02/06 13:11:07;;;;;;;16.40;6.55;;;;;;;;;;10528190;28;20407;-78
2022/02/06 13:26:28;;;;;;;13.43;6.83;;;;;;;;;;10538542;28;20046;-77
2022/02/06 13:31:43;;;;;;;10.18;6.47;;;;;;;;;;10536590;28;20274;-78
2022/02/06 13:36:53;;;;;;;17.55;6.47;;;;;;;;;;10493722;28;20092;-77
2022/02/06 13:41:54;;;;;;;15.45;6.28;;;;;;;;;;10494969;28;20049;-78
2022/02/06 13:46:57;;;;;;;10.63;5.63;;;;;;;;;;10512403;28;20024;-77
2022/02/06 13:52:04;;;;;;;16.38;6.53;;;;;;;;;;10534610;28;20371;-77
2022/02/06 13:57:06;;;;;;;11.60;5.88;;;;;;;;;;10535128;28;20016;-78
2022/02/06 14:02:08;;;;;;;10.70;5.60;;;;;;;;;;10509724;28;20037;-77
2022/02/06 14:07:15;;;;;;;11.20;5.35;;;;;;;;;;10476968;28;20036;-78
2022/02/06 14:12:17;;;;;;;10.68;5.53;;;;;;;;;;10492173;28;20029;-79
2022/02/06 14:17:19;;;;;;;10.02;5.03;;;;;;;;;;10493614;28;20043;-77
2022/02/06 14:22:35;;;;;;;8.00;4.47;;;;;;;;;;10501946;28;20111;-78
2022/02/06 14:27:40;;;;;;;11.85;4.97;;;;;;;;;;10495041;28;20036;-77
2022/02/06 14:32:56;;;;;;;8.90;4.85;;;;;;;;;;10533175;28;20639;-79
2022/02/06 14:37:59;;;;;;;17.42;5.30;;;;;;;;;;10532921;28;20495;-77
2022/02/06 14:43:11;;;;;;;15.40;5.07;;;;;;;;;;10533170;28;20502;-78
2022/02/06 14:48:11;;;;;;;9.32;4.22;;;;;;;;;;10533119;28;20043;-77
2022/02/06 14:53:12;;;;;;;8.57;4.00;;;;;;;;;;10531887;28;20039;-77
2022/02/06 14:58:12;;;;;;;9.20;3.83;;;;;;;;;;10530496;28;20028;-75
2022/02/06 15:03:13;;;;;;;11.40;4.47;;;;;;;;;;10532651;28;20036;-79
2022/02/06 15:08:14;;;;;;;16.10;4.18;;;;;;;;;;10490553;28;20271;-83
2022/02/06 15:13:15;;;;;;;12.57;5.80;;;;;;;;;;10515500;28;20024;-81
2022/02/06 15:18:35;;;;;;;14.07;5.72;;;;;;;;;;10535383;28;20046;-82
2022/02/06 15:23:42;;;;;;;13.93;5.53;;;;;;;;;;10534429;28;20035;-84
2022/02/06 15:28:43;;;;;;;13.73;5.13;;;;;;;;;;10532477;28;20028;-82
2022/02/06 15:33:44;;;;;;;14.80;6.88;;;;;;;;;;10531356;28;20035;-83
2022/02/06 15:38:45;;;;;;;20.10;8.40;;;;;;;;;;10531396;28;20075;-83
2022/02/06 15:43:45;;;;;;;23.52;10.15;;;;;;;;;;10530797;28;20016;-82
2022/02/06 15:48:46;;;;;;;27.45;11.07;;;;;;;;;;10530365;28;20040;-85
2022/02/06 15:53:47;;;;;;;24.63;11.73;;;;;;;;;;10529594;28;20023;-84
2022/02/06 15:58:47;;;;;;;26.70;12.15;;;;;;;;;;10531202;28;20055;-79
2022/02/06 16:03:48;;;;;;;29.75;12.85;;;;;;;;;;10506267;28;20097;-84
2022/02/06 16:08:48;;;;;;;24.00;11.85;;;;;;;;;;10488111;28;20036;-79
2022/02/06 16:13:48;;;;;;;24.30;10.53;;;;;;;;;;10488176;28;20025;-79
2022/02/06 16:18:48;;;;;;;26.75;10.00;;;;;;;;;;10487675;28;20017;-77
2022/02/06 16:23:52;;;;;;;24.27;10.90;;;;;;;;;;10486997;28;20064;-78
2022/02/06 16:28:55;;;;;;;24.83;11.68;;;;;;;;;;10486263;28;20052;-78
2022/02/06 16:33:56;;;;;;;28.60;12.23;;;;;;;;;;10487943;28;20511;-77
2022/02/06 16:38:56;;;;;;;26.00;10.85;;;;;;;;;;10519519;28;20055;-77
2022/02/06 16:43:56;;;;;;;25.08;12.32;;;;;;;;;;10529359;28;20035;-79
2022/02/06 16:48:57;;;;;;;30.77;11.17;;;;;;;;;;10511244;28;20028;-79
2022/02/06 16:53:57;;;;;;;24.67;11.27;;;;;;;;;;10515163;28;20487;-77
2022/02/06 16:58:59;;;;;;;23.33;11.57;;;;;;;;;;10505448;28;20535;-78
2022/02/06 17:03:59;;;;;;;24.40;11.68;;;;;;;;;;10528234;28;20035;-75
2022/02/06 17:09:00;;;;;;;30.27;13.18;;;;;;;;;;10508918;28;20062;-79
2022/02/06 17:14:00;;;;;;;29.57;13.40;;;;;;;;;;10487027;28;20318;-81
2022/02/06 17:19:01;;;;;;;33.88;12.70;;;;;;;;;;10500283;28;20266;-79
2022/02/06 17:24:02;;;;;;;34.28;13.13;;;;;;;;;;10527725;28;20054;-75
2022/02/06 17:29:03;;;;;;;38.28;15.15;;;;;;;;;;10527396;28;20308;-76
2022/02/06 17:34:04;;;;;;;33.63;13.50;;;;;;;;;;10526659;28;20032;-76
2022/02/06 17:39:04;;;;;;;32.22;15.48;;;;;;;;;;10526913;28;20458;-79
2022/02/06 17:44:05;;;;;;;40.38;15.15;;;;;;;;;;10513315;28;20033;-77
2022/02/06 17:49:05;;;;;;;33.40;14.43;;;;;;;;;;10486909;28;20031;-76
2022/02/06 17:54:08;;;;;;;28.92;13.43;;;;;;;;;;10486657;28;20036;-76
2022/02/06 17:59:10;;;;;;;27.65;13.85;;;;;;;;;;10505431;28;20107;-75
2022/02/06 18:04:11;;;;;;;28.27;13.05;;;;;;;;;;10525167;28;20036;-78
2022/02/06 18:09:12;;;;;;;39.40;14.77;;;;;;;;;;10531328;28;20028;-76
2022/02/06 18:14:13;;;;;;;35.72;14.68;;;;;;;;;;10534463;28;20081;-76
2022/02/06 18:19:13;;;;;;;32.10;14.55;;;;;;;;;;10504109;28;20089;-78
2022/02/06 18:24:13;;;;;;;29.27;13.67;;;;;;;;;;10491030;28;20352;-75
2022/02/06 18:29:13;;;;;;;31.50;14.63;;;;;;;;;;10491836;28;20017;-76
2022/02/06 18:34:14;;;;;;;53.78;17.67;;;;;;;;;;10491089;28;20487;-77
2022/02/06 18:39:14;;;;;;;35.53;14.73;;;;;;;;;;10523358;28;20044;-75
2022/02/06 18:44:15;;;;;;;34.92;17.08;;;;;;;;;;10531538;28;20024;-75
2022/02/06 18:49:21;;;;;;;42.40;15.38;;;;;;;;;;10531842;28;20084;-75
2022/02/06 18:54:26;;;;;;;36.95;16.48;;;;;;;;;;10532109;28;20031;-74
2022/02/06 18:59:30;;;;;;;43.47;18.48;;;;;;;;;;10532644;28;20028;-76
2022/02/06 19:04:31;;;;;;;39.72;19.15;;;;;;;;;;10530602;28;20065;-80
2022/02/06 19:09:31;;;;;;;47.65;22.65;;;;;;;;;;10512041;28;20021;-80
2022/02/06 19:14:31;;;;;;;45.90;21.20;;;;;;;;;;10492257;28;20034;-80
2022/02/06 19:19:31;;;;;;;51.53;20.63;;;;;;;;;;10489395;28;20025;-75
2022/02/06 19:24:32;;;;;;;39.27;20.10;;;;;;;;;;10491472;28;20034;-77
2022/02/06 19:29:32;;;;;;;47.20;20.17;;;;;;;;;;10529316;28;20048;-77
2022/02/06 19:34:38;;;;;;;43.07;20.77;;;;;;;;;;10530384;28;21101;-75
2022/02/06 19:39:38;;;;;;;44.65;19.35;;;;;;;;;;10530335;28;20059;-76
2022/02/06 19:44:39;;;;;;;44.03;20.58;;;;;;;;;;10530661;28;20031;-76
2022/02/06 19:49:39;;;;;;;39.90;19.05;;;;;;;;;;10530524;28;20048;-81
2022/02/06 19:54:40;;;;;;;49.20;17.80;;;;;;;;;;10532217;28;20499;-80
2022/02/06 19:59:40;;;;;;;43.00;18.27;;;;;;;;;;10530800;28;20034;-75
2022/02/06 20:04:41;;;;;;;38.88;19.40;;;;;;;;;;10505210;28;20025;-75
2022/02/06 20:09:51;;;;;;;33.93;16.43;;;;;;;;;;10489425;28;20033;-76
2022/02/06 20:14:51;;;;;;;42.08;18.70;;;;;;;;;;10489158;28;20575;-77
2022/02/06 20:19:51;;;;;;;33.07;17.30;;;;;;;;;;10505774;28;20100;-75
2022/02/06 20:24:52;;;;;;;34.75;17.25;;;;;;;;;;10487591;28;20033;-76
2022/02/06 20:29:54;;;;;;;31.05;15.30;;;;;;;;;;10486579;28;20469;-77
2022/02/06 20:34:55;;;;;;;35.83;14.73;;;;;;;;;;10528723;28;20089;-76
2022/02/06 20:39:55;;;;;;;36.15;13.77;;;;;;;;;;10529638;28;20059;-77
2022/02/06 20:44:55;;;;;;;42.13;15.65;;;;;;;;;;10529663;28;20030;-75
2022/02/06 20:49:56;;;;;;;24.65;11.75;;;;;;;;;;10511812;28;20024;-76
2022/02/06 20:54:58;;;;;;;27.15;11.65;;;;;;;;;;10529447;28;20027;-79
2022/02/06 20:59:59;;;;;;;29.13;13.20;;;;;;;;;;10529261;28;20085;-76
2022/02/06 21:05:00;;;;;;;22.77;11.02;;;;;;;;;;10528457;28;20480;-79
2022/02/06 21:10:01;;;;;;;19.77;10.73;;;;;;;;;;10528772;28;20020;-75
2022/02/06 21:15:02;;;;;;;19.30;9.55;;;;;;;;;;10511569;28;20077;-80
2022/02/06 21:20:04;;;;;;;17.90;8.13;;;;;;;;;;10530087;28;20028;-77
2022/02/06 21:25:07;;;;;;;19.23;9.30;;;;;;;;;;10529032;28;20054;-76
2022/02/06 21:30:07;;;;;;;19.77;9.43;;;;;;;;;;10528288;28;20483;-76
2022/02/06 21:35:07;;;;;;;21.20;8.93;;;;;;;;;;10528361;28;20032;-76
2022/02/06 21:40:08;;;;;;;25.92;8.45;;;;;;;;;;10527910;28;20077;-76
2022/02/06 21:45:09;;;;;;;16.05;8.70;;;;;;;;;;10536049;28;20035;-76
2022/02/06 21:50:09;;;;;;;21.75;9.75;;;;;;;;;;10537664;28;20764;-76
2022/02/06 21:55:10;;;;;;;22.95;10.35;;;;;;;;;;10535750;28;20483;-76
2022/02/06 22:00:14;;;;;;;20.55;9.45;;;;;;;;;;10536044;28;20484;-75
2022/02/06 22:05:26;;;;;;;26.98;9.88;;;;;;;;;;10535352;28;20487;-79
2022/02/06 22:31:01;;;;;;;24.35;11.98;;;;;;;;;;10536810;28;20024;-77
2022/02/06 22:36:02;;;;;;;24.27;12.45;;;;;;;;;;10535014;28;20423;-76
2022/02/06 22:41:03;;;;;;;24.48;12.75;;;;;;;;;;10518144;28;20435;-76
2022/02/06 22:46:03;;;;;;;36.22;14.43;;;;;;;;;;10533449;28;20108;-76
2022/02/06 22:51:04;;;;;;;26.87;14.37;;;;;;;;;;10533916;28;20020;-82
2022/02/06 22:56:05;;;;;;;27.67;12.10;;;;;;;;;;10533264;28;20513;-77
2022/02/06 23:01:05;;;;;;;29.42;13.20;;;;;;;;;;10532861;28;20209;-76
2022/02/06 23:06:08;;;;;;;36.07;14.13;;;;;;;;;;10533499;28;20539;-76
2022/02/06 23:11:09;;;;;;;29.92;13.55;;;;;;;;;;10532949;28;20028;-76
2022/02/06 23:16:10;;;;;;;32.47;13.77;;;;;;;;;;10532871;28;20388;-77
2022/02/06 23:21:12;;;;;;;28.58;15.07;;;;;;;;;;10532972;28;20411;-79
2022/02/06 23:26:13;;;;;;;32.20;15.35;;;;;;;;;;10533727;28;20077;-75
2022/02/06 23:31:14;;;;;;;30.50;13.80;;;;;;;;;;10531951;28;20024;-75
2022/02/06 23:36:14;;;;;;;39.57;15.43;;;;;;;;;;10531901;28;20466;-80
2022/02/06 23:41:15;;;;;;;30.67;15.10;;;;;;;;;;10531900;28;20052;-75
2022/02/06 23:46:23;;;;;;;29.48;14.85;;;;;;;;;;10531659;28;20111;-76
